Time;durP1;ratioP1;P1;durP2;ratioP2;P2;SDS_P1;SDS_P2;PMS_P1;PMS_P2;Temp;Humidity;BMP_temperature;BMP_pressure;BME280_temperature;BME280_humidity;BME280_pressure;Samples;Min_cycle;Max_cycle;Signal;HPM_P1;HPM_P2
2023/07/13 00:01:46;;;;;;;7.00;1.30;;;20.70;83.30;;;;;;5039999;28;20030;-79
2023/07/13 00:04:12;;;;;;;5.50;0.82;;;20.60;83.40;;;;;;5019883;28;20113;-79
2023/07/13 00:06:37;;;;;;;5.18;1.33;;;20.40;83.70;;;;;;5002021;28;20111;-80
2023/07/13 00:09:03;;;;;;;7.97;1.13;;;20.30;84.50;;;;;;5017884;28;20029;-79
2023/07/13 00:11:29;;;;;;;6.25;0.90;;;20.20;84.20;;;;;;5018874;28;20221;-79
2023/07/13 00:13:55;;;;;;;4.05;0.70;;;20.10;84.40;;;;;;5002931;28;20057;-79
2023/07/13 00:16:21;;;;;;;4.35;0.90;;;20.10;84.80;;;;;;5021899;28;20036;-80
2023/07/13 00:18:47;;;;;;;7.82;1.17;;;20.20;85.20;;;;;;5006517;28;20469;-80
2023/07/13 00:21:13;;;;;;;6.63;0.70;;;20.20;84.80;;;;;;5019002;28;20128;-79
2023/07/13 00:23:40;;;;;;;7.30;0.77;;;20.10;85.10;;;;;;5001247;28;20061;-79
2023/07/13 00:26:08;;;;;;;3.63;0.80;;;20.10;85.20;;;;;;5002135;28;20033;-79
2023/07/13 00:28:35;;;;;;;3.72;0.60;;;20.10;85.60;;;;;;5036544;28;20471;-79
2023/07/13 00:31:01;;;;;;;9.23;1.92;;;20.10;85.90;;;;;;5036223;28;20466;-80
2023/07/13 00:33:28;;;;;;;4.97;0.93;;;20.10;86.10;;;;;;5038941;28;20108;-79
2023/07/13 00:35:55;;;;;;;2.55;0.60;;;20.10;86.30;;;;;;5040629;28;20041;-80
2023/07/13 00:38:22;;;;;;;3.60;0.65;;;20.10;86.60;;;;;;5037393;28;20057;-79
2023/07/13 00:40:48;;;;;;;3.80;0.73;;;20.20;86.80;;;;;;5037818;28;20488;-79
2023/07/13 00:43:17;;;;;;;6.15;0.50;;;20.30;87.10;;;;;;5006791;28;20029;-79
2023/07/13 00:45:43;;;;;;;3.78;0.65;;;20.40;87.00;;;;;;5022141;28;20053;-79
2023/07/13 00:48:10;;;;;;;3.38;0.50;;;20.40;86.60;;;;;;5038371;28;20036;-79
2023/07/13 00:50:37;;;;;;;6.00;0.77;;;20.40;86.30;;;;;;5039270;28;20053;-79
2023/07/13 00:53:03;;;;;;;6.70;1.02;;;20.40;85.90;;;;;;5018545;28;20042;-79
2023/07/13 00:55:29;;;;;;;4.57;1.02;;;20.40;85.30;;;;;;5039096;28;20532;-79
2023/07/13 00:57:55;;;;;;;4.07;0.65;;;20.40;84.70;;;;;;5032487;28;20089;-78
2023/07/13 01:00:22;;;;;;;3.30;0.50;;;20.40;85.10;;;;;;5053014;28;20029;-79
2023/07/13 01:02:49;;;;;;;3.63;0.40;;;20.40;85.60;;;;;;5044254;28;20351;-79
2023/07/13 01:05:19;;;;;;;2.45;0.70;;;20.50;86.00;;;;;;5045441;28;20009;-79
2023/07/13 01:07:47;;;;;;;2.60;0.60;;;20.50;86.40;;;;;;5045345;28;20032;-79
2023/07/13 01:10:13;;;;;;;2.35;0.57;;;20.60;86.80;;;;;;5045722;28;20021;-79
2023/07/13 01:12:39;;;;;;;2.47;0.40;;;20.70;87.00;;;;;;5044975;28;20093;-79
2023/07/13 01:15:25;;;;;;;3.92;0.60;;;20.70;86.70;;;;;;5042198;28;20034;-79
2023/07/13 01:17:51;;;;;;;3.92;0.40;;;20.80;86.60;;;;;;5041666;28;20055;-79
2023/07/13 01:20:17;;;;;;;5.97;0.73;;;20.80;86.30;;;;;;5061166;28;20049;-79
2023/07/13 01:22:43;;;;;;;1.77;0.38;;;20.80;85.00;;;;;;5029581;28;20033;-79
2023/07/13 01:25:08;;;;;;;2.65;0.47;;;20.80;85.00;;;;;;5044925;28;20029;-78
2023/07/13 01:27:34;;;;;;;3.22;0.60;;;20.80;85.40;;;;;;5044896;28;20389;-79
2023/07/13 01:30:03;;;;;;;3.83;0.93;;;20.70;85.00;;;;;;5026418;28;20057;-79
2023/07/13 01:32:31;;;;;;;4.30;0.65;;;20.70;85.10;;;;;;5062046;28;20089;-79
2023/07/13 01:34:56;;;;;;;3.28;0.38;;;20.60;85.20;;;;;;5030070;28;20026;-79
2023/07/13 01:37:26;;;;;;;3.63;0.40;;;20.60;85.10;;;;;;5046167;28;20056;-79
2023/07/13 01:39:52;;;;;;;3.13;0.60;;;20.60;84.90;;;;;;5030570;28;20034;-79
2023/07/13 01:42:18;;;;;;;4.07;0.70;;;20.60;84.70;;;;;;5029172;28;20040;-79
2023/07/13 01:44:43;;;;;;;3.03;0.55;;;20.60;85.30;;;;;;5046404;28;20120;-79
2023/07/13 01:47:10;;;;;;;4.07;0.47;;;20.60;85.20;;;;;;5064498;28;20112;-80
2023/07/13 01:49:37;;;;;;;1.98;0.65;;;20.70;85.20;;;;;;5046422;28;20101;-80
2023/07/13 01:52:03;;;;;;;8.27;0.90;;;20.60;85.20;;;;;;5021637;28;20052;-80
2023/07/13 01:54:29;;;;;;;4.18;0.80;;;20.60;84.60;;;;;;5037859;28;20030;-80
2023/07/13 01:56:54;;;;;;;7.45;1.02;;;20.40;84.70;;;;;;5037853;28;20534;-80
2023/07/13 01:59:20;;;;;;;2.38;0.50;;;20.40;84.30;;;;;;5052280;28;20029;-80
2023/07/13 02:01:45;;;;;;;3.70;0.80;;;20.40;85.10;;;;;;5035251;28;20089;-80
2023/07/13 02:04:11;;;;;;;5.75;0.90;;;20.40;85.20;;;;;;5040099;28;20029;-80
2023/07/13 02:06:37;;;;;;;5.07;0.82;;;20.40;85.00;;;;;;5047580;28;20049;-80
2023/07/13 02:09:02;;;;;;;4.28;0.93;;;20.30;84.50;;;;;;5053624;28;20069;-80
2023/07/13 02:11:32;;;;;;;6.82;1.08;;;20.20;84.80;;;;;;5019056;28;20041;-80
2023/07/13 02:14:02;;;;;;;4.93;0.90;;;20.10;84.90;;;;;;5055093;28;20052;-79
2023/07/13 02:16:28;;;;;;;5.88;0.98;;;20.00;85.40;;;;;;5050751;28;20033;-79
2023/07/13 02:18:55;;;;;;;4.68;1.25;;;19.80;85.50;;;;;;5052463;28;20025;-79
2023/07/13 02:21:23;;;;;;;3.42;0.75;;;19.80;86.10;;;;;;5060165;28;20029;-79
2023/07/13 02:23:49;;;;;;;3.50;0.65;;;19.70;86.70;;;;;;5060258;28;20053;-79
2023/07/13 02:26:14;;;;;;;3.75;0.70;;;19.70;87.40;;;;;;5058170;28;20009;-78
2023/07/13 02:28:40;;;;;;;3.13;0.93;;;19.70;87.60;;;;;;5043602;28;20026;-79
2023/07/13 02:31:07;;;;;;;5.00;1.10;;;19.80;88.00;;;;;;5026522;28;20028;-79
2023/07/13 02:33:33;;;;;;;4.55;1.40;;;19.80;87.90;;;;;;5050618;28;20371;-80
2023/07/13 02:35:59;;;;;;;5.15;0.80;;;19.80;87.90;;;;;;5023676;28;20041;-79
2023/07/13 02:38:24;;;;;;;6.68;1.10;;;19.80;87.90;;;;;;5057659;28;20029;-79
2023/07/13 02:40:51;;;;;;;3.75;0.68;;;19.80;87.90;;;;;;5060028;28;20021;-79
2023/07/13 02:43:16;;;;;;;5.75;0.90;;;19.80;87.40;;;;;;5059839;28;20077;-80
2023/07/13 02:45:45;;;;;;;4.60;0.95;;;19.70;87.60;;;;;;5057973;28;20030;-79
2023/07/13 02:48:13;;;;;;;5.80;1.15;;;19.60;87.50;;;;;;5054390;28;20032;-79
2023/07/13 02:50:39;;;;;;;6.35;1.45;;;19.60;88.00;;;;;;5039639;28;20108;-79
2023/07/13 02:53:04;;;;;;;4.80;0.88;;;19.60;88.10;;;;;;5059145;28;20398;-79
2023/07/13 02:55:30;;;;;;;4.43;0.80;;;19.60;88.40;;;;;;5021971;28;20017;-79
2023/07/13 02:57:56;;;;;;;6.25;1.27;;;19.60;88.60;;;;;;5021275;28;20030;-79
2023/07/13 03:00:22;;;;;;;7.40;1.00;;;19.60;88.40;;;;;;5048955;28;20049;-78
2023/07/13 03:02:48;;;;;;;4.78;1.40;;;19.50;88.30;;;;;;5012342;28;20091;-79
2023/07/13 03:05:15;;;;;;;4.03;0.98;;;19.50;88.50;;;;;;5044184;28;20474;-79
2023/07/13 03:07:40;;;;;;;4.90;1.08;;;19.50;88.60;;;;;;5022605;28;20121;-80
2023/07/13 03:10:06;;;;;;;5.20;0.98;;;19.50;88.70;;;;;;5040602;28;20451;-80
2023/07/13 03:12:33;;;;;;;7.55;1.25;;;19.50;88.90;;;;;;5039799;28;20507;-80
2023/07/13 03:14:58;;;;;;;9.77;1.42;;;19.50;88.90;;;;;;5021019;28;20060;-80
2023/07/13 03:17:24;;;;;;;3.60;0.90;;;19.50;88.90;;;;;;5024633;28;20342;-80
2023/07/13 03:19:50;;;;;;;3.97;0.93;;;19.40;88.90;;;;;;5043251;28;20497;-80
2023/07/13 03:22:19;;;;;;;7.90;1.40;;;19.40;89.60;;;;;;5012546;28;20033;-80
2023/07/13 03:24:45;;;;;;;3.17;0.80;;;19.50;89.70;;;;;;5050121;28;20041;-80
2023/07/13 03:27:11;;;;;;;3.38;0.80;;;19.40;89.90;;;;;;5051343;28;20032;-80
2023/07/13 03:29:37;;;;;;;6.30;1.42;;;19.50;90.00;;;;;;5030976;28;20127;-80
2023/07/13 03:32:04;;;;;;;4.05;0.93;;;19.50;90.00;;;;;;5021682;28;20033;-80
2023/07/13 03:34:30;;;;;;;5.10;0.95;;;19.50;89.90;;;;;;5048968;28;20021;-80
2023/07/13 03:36:56;;;;;;;4.60;0.80;;;19.50;90.00;;;;;;5050533;28;20072;-80
2023/07/13 03:39:21;;;;;;;5.63;0.90;;;19.50;89.80;;;;;;5051260;28;20057;-79
2023/07/13 03:41:47;;;;;;;5.95;1.27;;;19.50;89.90;;;;;;5034290;28;20093;-80
2023/07/13 03:44:13;;;;;;;5.53;1.27;;;19.50;90.00;;;;;;5050687;28;20083;-79
2023/07/13 03:46:39;;;;;;;5.20;1.00;;;19.50;89.80;;;;;;5029299;28;20033;-80
2023/07/13 03:49:05;;;;;;;5.82;1.10;;;19.50;89.70;;;;;;5052030;28;20026;-79
2023/07/13 03:51:31;;;;;;;4.53;1.05;;;19.50;89.90;;;;;;5028149;28;20041;-80
2023/07/13 03:53:57;;;;;;;5.78;1.30;;;19.40;90.00;;;;;;5044730;28;20034;-80
2023/07/13 03:56:23;;;;;;;8.35;1.45;;;19.30;90.10;;;;;;5044895;28;20033;-80
2023/07/13 03:58:50;;;;;;;5.40;1.20;;;19.30;90.10;;;;;;5046219;28;20096;-79
2023/07/13 04:01:17;;;;;;;5.20;1.20;;;19.20;90.10;;;;;;5044618;28;20089;-81
2023/07/13 04:03:44;;;;;;;6.65;1.40;;;19.20;90.30;;;;;;5011419;28;20040;-80
2023/07/13 04:06:15;;;;;;;4.05;0.93;;;19.20;90.50;;;;;;5028779;28;20087;-80
2023/07/13 04:08:42;;;;;;;5.75;1.20;;;19.20;90.50;;;;;;5045845;28;20071;-80
2023/07/13 04:11:08;;;;;;;5.80;1.20;;;19.20;90.60;;;;;;5044073;28;20034;-81
2023/07/13 04:13:33;;;;;;;4.72;0.93;;;19.20;90.60;;;;;;5030788;28;20038;-80
2023/07/13 04:15:59;;;;;;;4.80;1.25;;;19.30;90.60;;;;;;5047086;28;20037;-80
2023/07/13 04:18:25;;;;;;;6.20;1.55;;;19.30;90.70;;;;;;5028711;28;20029;-80
2023/07/13 04:20:51;;;;;;;5.70;1.35;;;19.30;90.70;;;;;;5031186;28;20037;-80
2023/07/13 04:23:17;;;;;;;6.00;0.93;;;19.30;90.70;;;;;;5048372;28;20056;-79
2023/07/13 04:25:44;;;;;;;3.85;1.00;;;19.30;90.80;;;;;;5045983;28;20018;-80
2023/07/13 04:28:10;;;;;;;7.40;1.65;;;19.30;90.90;;;;;;5046490;28;20025;-80
2023/07/13 04:30:36;;;;;;;6.15;1.33;;;19.40;90.90;;;;;;5025700;28;20084;-80
2023/07/13 04:33:01;;;;;;;8.00;2.25;;;19.30;90.80;;;;;;5027646;28;20049;-80
2023/07/13 04:35:27;;;;;;;10.00;1.55;;;19.30;90.80;;;;;;5047412;28;20033;-80
2023/07/13 04:37:53;;;;;;;10.00;2.15;;;19.30;90.90;;;;;;5044993;28;20025;-80
2023/07/13 04:40:19;;;;;;;6.18;1.20;;;19.30;90.90;;;;;;5045401;28;20041;-80
2023/07/13 04:42:45;;;;;;;4.97;1.17;;;19.30;90.70;;;;;;5050539;28;20081;-79
2023/07/13 04:45:13;;;;;;;10.73;3.25;;;19.30;90.90;;;;;;5027478;28;20040;-80
2023/07/13 04:47:39;;;;;;;10.25;1.75;;;19.30;91.00;;;;;;5044606;28;20076;-80
2023/07/13 04:50:05;;;;;;;7.45;2.08;;;19.30;91.00;;;;;;5010835;28;20551;-80
2023/07/13 04:52:32;;;;;;;9.32;1.90;;;19.20;91.10;;;;;;5027538;28;20038;-80
2023/07/13 04:54:58;;;;;;;11.57;2.42;;;19.20;91.20;;;;;;5044088;28;20030;-80
2023/07/13 04:57:24;;;;;;;5.93;1.77;;;19.20;91.40;;;;;;5026238;28;20033;-80
2023/07/13 04:59:50;;;;;;;9.90;2.38;;;19.10;91.60;;;;;;5022850;28;20026;-80
2023/07/13 05:02:15;;;;;;;6.38;2.15;;;19.10;91.70;;;;;;5006781;28;20038;-79
2023/07/13 05:04:41;;;;;;;11.93;2.85;;;19.00;91.90;;;;;;5040329;28;20037;-79
2023/07/13 05:07:07;;;;;;;9.88;2.60;;;19.00;92.00;;;;;;5042370;28;20511;-78
2023/07/13 05:09:33;;;;;;;10.23;2.42;;;19.00;92.10;;;;;;5024172;28;20048;-80
2023/07/13 05:11:58;;;;;;;6.00;1.77;;;19.00;92.10;;;;;;5027213;28;20037;-80
2023/07/13 05:14:24;;;;;;;6.82;1.90;;;19.00;92.30;;;;;;5041741;28;20036;-80
2023/07/13 05:16:49;;;;;;;10.57;2.22;;;19.00;92.40;;;;;;5006598;28;20053;-80
2023/07/13 05:19:15;;;;;;;6.82;2.03;;;19.10;92.20;;;;;;5005945;28;20087;-80
2023/07/13 05:21:41;;;;;;;8.38;2.35;;;19.10;92.20;;;;;;5034557;28;20037;-82
2023/07/13 05:24:06;;;;;;;7.40;1.85;;;19.10;92.30;;;;;;5033616;28;20030;-82
2023/07/13 05:26:32;;;;;;;8.48;1.98;;;19.10;92.30;;;;;;5033683;28;20500;-82
2023/07/13 05:28:58;;;;;;;6.85;1.92;;;19.20;92.50;;;;;;5015670;28;20136;-82
2023/07/13 05:31:24;;;;;;;10.82;2.90;;;19.20;92.50;;;;;;5016242;28;20522;-82
2023/07/13 05:33:49;;;;;;;14.75;3.20;;;19.20;92.40;;;;;;4999373;28;20029;-83
2023/07/13 05:36:15;;;;;;;11.02;2.88;;;19.20;92.40;;;;;;5015741;28;20033;-83
2023/07/13 05:38:40;;;;;;;8.70;2.50;;;19.20;92.40;;;;;;5033508;28;20370;-82
2023/07/13 05:41:06;;;;;;;5.30;1.25;;;19.20;92.50;;;;;;5016215;28;20458;-80
2023/07/13 05:43:33;;;;;;;6.25;1.48;;;19.30;92.90;;;;;;5035240;28;20442;-80
2023/07/13 05:45:58;;;;;;;7.90;2.25;;;19.50;92.70;;;;;;5019201;28;20078;-81
2023/07/13 05:48:24;;;;;;;8.02;2.00;;;19.80;92.20;;;;;;5036695;28;20021;-82
2023/07/13 05:50:50;;;;;;;8.85;1.95;;;19.90;92.20;;;;;;5036797;28;20057;-79
2023/07/13 05:53:16;;;;;;;10.35;2.88;;;20.00;92.10;;;;;;5036459;28;20128;-79
2023/07/13 05:55:43;;;;;;;8.70;2.53;;;20.10;91.80;;;;;;5018457;28;20120;-81
2023/07/13 05:58:09;;;;;;;13.02;3.40;;;20.20;91.80;;;;;;5036691;28;20064;-79
2023/07/13 06:00:34;;;;;;;12.93;3.83;;;20.20;91.70;;;;;;5036503;28;20437;-82
2023/07/13 06:03:00;;;;;;;12.30;2.65;;;20.20;91.60;;;;;;5019296;28;20172;-83
2023/07/13 06:05:27;;;;;;;7.68;2.35;;;20.10;91.80;;;;;;5036590;28;20110;-79
2023/07/13 06:07:52;;;;;;;7.88;3.10;;;20.20;91.80;;;;;;5018928;28;20037;-80
2023/07/13 06:10:18;;;;;;;8.07;2.78;;;20.30;91.70;;;;;;5036649;28;20029;-78
2023/07/13 06:12:43;;;;;;;13.10;3.90;;;20.40;91.60;;;;;;5036128;28;20041;-78
2023/07/13 06:15:09;;;;;;;14.07;4.47;;;20.50;91.50;;;;;;5019405;28;20075;-77
2023/07/13 06:17:35;;;;;;;15.00;4.80;;;20.50;91.50;;;;;;5018644;28;20035;-79
2023/07/13 06:20:01;;;;;;;17.27;5.32;;;20.50;91.60;;;;;;5002072;28;20378;-78
2023/07/13 06:22:27;;;;;;;10.50;4.35;;;20.40;91.60;;;;;;5035769;28;20370;-79
2023/07/13 06:24:53;;;;;;;12.63;4.53;;;20.40;91.70;;;;;;5036417;28;20483;-79
2023/07/13 06:27:19;;;;;;;18.65;6.07;;;20.40;91.80;;;;;;5018561;28;20037;-79
2023/07/13 06:29:45;;;;;;;16.95;6.70;;;20.40;91.90;;;;;;5017815;28;20049;-78
2023/07/13 06:32:10;;;;;;;11.65;4.88;;;20.30;92.00;;;;;;5035768;28;20158;-79
2023/07/13 06:34:36;;;;;;;11.15;4.22;;;20.20;92.30;;;;;;5035718;28;20477;-79
2023/07/13 06:37:02;;;;;;;11.52;5.03;;;20.20;92.40;;;;;;5036058;28;20051;-80
2023/07/13 06:39:28;;;;;;;13.20;6.05;;;20.30;92.40;;;;;;5036121;28;20030;-79
2023/07/13 06:41:53;;;;;;;21.80;6.85;;;20.30;92.50;;;;;;5036031;28;20041;-78
2023/07/13 06:44:19;;;;;;;16.08;5.15;;;20.20;92.60;;;;;;5036161;28;20087;-80
2023/07/13 06:46:45;;;;;;;16.55;5.43;;;20.20;92.80;;;;;;5001784;28;20115;-79
2023/07/13 06:49:10;;;;;;;11.77;5.30;;;20.20;92.90;;;;;;5018428;28;20543;-81
2023/07/13 06:51:36;;;;;;;15.00;6.22;;;20.30;93.00;;;;;;5035878;28;20417;-79
2023/07/13 06:54:03;;;;;;;19.73;7.93;;;20.30;92.90;;;;;;5035284;28;20038;-78
2023/07/13 06:56:28;;;;;;;11.50;4.82;;;20.40;92.90;;;;;;5018212;28;20377;-78
2023/07/13 06:58:54;;;;;;;20.92;6.72;;;20.40;92.90;;;;;;5018215;28;20038;-79
2023/07/13 07:01:20;;;;;;;17.73;7.68;;;20.50;93.00;;;;;;5017652;28;20091;-78
2023/07/13 07:03:47;;;;;;;21.17;9.27;;;20.60;92.90;;;;;;5035525;28;20030;-81
2023/07/13 07:06:19;;;;;;;15.90;8.80;;;20.50;92.70;;;;;;5020918;28;20124;-80
2023/07/13 07:08:45;;;;;;;26.17;9.30;;;20.50;92.80;;;;;;5047085;28;20052;-82
2023/07/13 07:11:22;;;;;;;18.77;9.43;;;20.30;93.20;;;;;;5049347;28;20026;-81
2023/07/13 07:13:49;;;;;;;22.63;10.10;;;20.20;93.40;;;;;;5043272;28;20493;-82
2023/07/13 07:16:15;;;;;;;25.20;9.75;;;20.10;94.00;;;;;;5003564;28;20092;-80
2023/07/13 07:18:41;;;;;;;23.02;10.05;;;19.90;94.20;;;;;;5020637;28;20064;-82
2023/07/13 07:21:06;;;;;;;21.27;10.45;;;19.80;94.40;;;;;;5019435;28;20029;-83
2023/07/13 07:23:32;;;;;;;25.80;9.80;;;19.70;94.50;;;;;;5036722;28;20038;-80
2023/07/13 07:25:58;;;;;;;25.75;10.73;;;19.60;94.70;;;;;;5020012;28;20069;-82
2023/07/13 07:28:24;;;;;;;24.45;10.00;;;19.50;95.10;;;;;;5038359;28;20030;-82
2023/07/13 07:30:53;;;;;;;24.52;10.43;;;19.50;95.50;;;;;;5037053;28;20112;-82
2023/07/13 07:33:19;;;;;;;23.50;10.63;;;19.50;95.50;;;;;;5035897;28;20048;-80
2023/07/13 07:35:45;;;;;;;22.35;9.80;;;19.40;95.50;;;;;;5036519;28;20041;-80
2023/07/13 07:38:10;;;;;;;24.95;9.70;;;19.40;95.80;;;;;;5035798;28;20029;-80
2023/07/13 07:40:40;;;;;;;23.42;10.77;;;19.50;95.90;;;;;;5035908;28;20107;-81
2023/07/13 07:43:07;;;;;;;22.17;11.00;;;19.50;96.00;;;;;;5019676;28;20030;-81
2023/07/13 07:45:32;;;;;;;19.17;9.07;;;19.50;95.70;;;;;;5036305;28;20116;-81
2023/07/13 07:47:59;;;;;;;23.70;9.98;;;19.40;95.90;;;;;;5036883;28;20053;-79
2023/07/13 07:50:28;;;;;;;26.30;10.85;;;19.50;96.10;;;;;;5002056;28;20469;-80
2023/07/13 07:52:55;;;;;;;17.65;8.32;;;19.50;96.00;;;;;;5037758;28;20434;-78
2023/07/13 07:55:22;;;;;;;24.98;11.20;;;19.50;96.00;;;;;;5020646;28;20029;-81
2023/07/13 07:57:48;;;;;;;19.65;11.15;;;19.40;96.10;;;;;;5040105;28;20378;-78
2023/07/13 08:00:16;;;;;;;22.38;10.80;;;19.40;96.10;;;;;;5036559;28;20369;-81
2023/07/13 08:02:42;;;;;;;20.27;11.23;;;19.40;96.10;;;;;;5002639;28;20094;-81
2023/07/13 08:05:08;;;;;;;19.50;10.18;;;19.40;96.10;;;;;;4986215;28;20112;-81
2023/07/13 08:07:35;;;;;;;24.27;11.05;;;19.40;96.20;;;;;;5019931;28;20533;-81
2023/07/13 08:10:01;;;;;;;29.30;12.15;;;19.50;96.50;;;;;;5019417;28;20037;-80
2023/07/13 08:12:27;;;;;;;28.90;11.70;;;19.50;96.10;;;;;;5018097;28;20030;-81
2023/07/13 08:14:57;;;;;;;19.00;10.55;;;19.60;96.10;;;;;;5020752;28;20045;-81
2023/07/13 08:17:24;;;;;;;22.52;10.48;;;19.70;96.20;;;;;;5021359;28;20116;-82
2023/07/13 08:19:50;;;;;;;17.40;9.52;;;19.80;96.20;;;;;;5035743;28;20041;-81
2023/07/13 08:22:16;;;;;;;24.08;10.40;;;20.00;96.40;;;;;;5034001;28;20091;-80
2023/07/13 08:24:42;;;;;;;23.00;11.27;;;20.10;96.10;;;;;;5016328;28;20409;-79
2023/07/13 08:27:09;;;;;;;22.05;11.07;;;20.20;95.60;;;;;;5016920;28;20422;-79
2023/07/13 08:29:34;;;;;;;19.83;10.60;;;20.30;95.30;;;;;;5033890;28;20084;-82
2023/07/13 08:32:00;;;;;;;22.25;9.70;;;20.50;95.30;;;;;;5017294;28;20065;-79
2023/07/13 08:34:26;;;;;;;16.60;8.95;;;20.60;94.90;;;;;;5000227;28;20025;-81
2023/07/13 08:36:52;;;;;;;21.25;9.60;;;20.70;94.50;;;;;;5000009;28;20032;-80
2023/07/13 08:39:17;;;;;;;19.83;8.55;;;20.70;93.90;;;;;;5000201;28;20075;-81
2023/07/13 08:41:52;;;;;;;16.67;8.43;;;20.70;93.80;;;;;;4999754;28;20029;-80
2023/07/13 08:44:48;;;;;;;19.25;8.07;;;20.80;94.20;;;;;;5016003;28;20029;-79
2023/07/13 08:47:16;;;;;;;18.15;8.13;;;20.90;94.40;;;;;;5033739;28;20030;-79
2023/07/13 08:49:46;;;;;;;16.88;7.80;;;21.20;93.60;;;;;;5000492;28;20036;-80
2023/07/13 08:52:45;;;;;;;20.13;8.73;;;21.10;92.90;;;;;;5033673;28;20034;-80
2023/07/13 08:55:24;;;;;;;16.30;7.72;;;21.00;92.70;;;;;;4998682;28;20040;-80
2023/07/13 08:57:56;;;;;;;13.82;7.60;;;20.70;93.10;;;;;;5015849;28;20037;-79
2023/07/13 09:00:27;;;;;;;18.30;8.00;;;20.60;93.40;;;;;;5033655;28;20112;-79
2023/07/13 09:02:57;;;;;;;16.77;8.20;;;20.40;93.30;;;;;;4999702;28;20022;-78
2023/07/13 09:05:28;;;;;;;17.23;6.72;;;20.30;93.30;;;;;;5015779;28;20079;-80
2023/07/13 09:07:53;;;;;;;17.13;6.93;;;20.40;93.20;;;;;;5016139;28;20032;-79
2023/07/13 09:11:17;;;;;;;12.00;5.70;;;20.60;92.90;;;;;;5033921;28;20022;-80
2023/07/13 09:14:06;;;;;;;15.68;5.80;;;21.00;92.90;;;;;;4944617;29;20174;-80
2023/07/13 09:16:33;;;;;;;14.00;5.88;;;21.30;91.70;;;;;;5020630;28;20040;-81
2023/07/13 09:19:07;;;;;;;17.42;5.90;;;21.30;90.80;;;;;;5041523;28;20017;-81
2023/07/13 09:21:41;;;;;;;14.25;6.90;;;21.40;90.60;;;;;;5042670;28;20034;-84
2023/07/13 09:24:36;;;;;;;13.60;4.93;;;21.40;90.40;;;;;;5043200;28;20025;-81
2023/07/13 09:27:24;;;;;;;11.43;4.78;;;21.40;90.20;;;;;;5015908;28;20038;-84
2023/07/13 09:29:58;;;;;;;12.98;5.28;;;21.30;90.40;;;;;;5047675;28;20454;-85
2023/07/13 09:32:26;;;;;;;12.18;5.13;;;21.30;90.50;;;;;;5043255;28;20049;-84
2023/07/13 09:34:54;;;;;;;13.48;5.10;;;21.20;90.10;;;;;;5040936;28;20048;-81
2023/07/13 09:37:23;;;;;;;12.90;5.18;;;21.10;90.80;;;;;;5030743;28;20093;-80
2023/07/13 09:39:50;;;;;;;10.30;4.35;;;20.80;92.40;;;;;;5045666;28;20029;-77
2023/07/13 09:42:21;;;;;;;9.20;2.70;;;20.50;93.10;;;;;;5048890;28;20045;-81
2023/07/13 09:45:02;;;;;;;5.90;2.10;;;20.20;92.30;;;;;;5031120;28;20093;-81
2023/07/13 09:47:30;;;;;;;5.95;1.92;;;19.90;93.10;;;;;;5045746;28;20022;-80
2023/07/13 09:49:59;;;;;;;5.10;2.00;;;19.90;93.40;;;;;;5044314;28;20018;-82
2023/07/13 09:52:27;;;;;;;5.35;2.55;;;19.90;93.70;;;;;;5023243;28;20365;-82
2023/07/13 09:54:58;;;;;;;9.10;2.83;;;19.90;94.20;;;;;;5029877;28;20030;-81
2023/07/13 09:57:26;;;;;;;10.75;4.35;;;20.00;94.60;;;;;;5030853;28;20037;-84
2023/07/13 09:59:53;;;;;;;13.80;3.85;;;20.00;95.00;;;;;;5043886;28;20033;-81
2023/07/13 10:02:34;;;;;;;9.70;3.33;;;20.00;95.00;;;;;;5022121;28;20041;-83
2023/07/13 10:05:04;;;;;;;9.73;3.95;;;20.00;95.40;;;;;;5026295;28;20029;-85
2023/07/13 10:07:32;;;;;;;9.75;4.07;;;20.00;95.70;;;;;;5041769;28;20021;-84
2023/07/13 10:10:00;;;;;;;9.88;3.42;;;20.10;95.80;;;;;;5042069;28;20491;-84
2023/07/13 10:12:27;;;;;;;9.98;4.57;;;20.20;95.50;;;;;;5042277;28;20490;-84
2023/07/13 10:15:01;;;;;;;8.52;3.60;;;20.30;95.30;;;;;;5045103;28;20030;-83
2023/07/13 10:17:30;;;;;;;14.48;3.67;;;20.50;95.10;;;;;;5045496;28;20481;-82
2023/07/13 10:20:05;;;;;;;10.43;4.60;;;20.70;95.00;;;;;;5026426;28;20035;-83
2023/07/13 10:22:49;;;;;;;10.80;3.42;;;21.00;94.90;;;;;;5041412;28;20068;-82
2023/07/13 10:25:22;;;;;;;9.02;3.72;;;21.20;94.10;;;;;;5041033;28;20091;-83
2023/07/13 10:27:52;;;;;;;8.77;3.00;;;21.30;93.10;;;;;;5037326;28;20053;-79
2023/07/13 10:30:17;;;;;;;13.40;3.60;;;21.50;92.50;;;;;;5020814;28;20132;-84
2023/07/13 10:32:44;;;;;;;6.65;2.83;;;21.70;92.20;;;;;;5041889;28;20095;-83
2023/07/13 10:35:17;;;;;;;11.27;3.25;;;21.90;92.20;;;;;;5023317;28;20047;-84
2023/07/13 10:37:57;;;;;;;7.82;2.78;;;21.80;91.40;;;;;;5043188;28;20021;-83
2023/07/13 10:40:37;;;;;;;8.65;2.80;;;21.60;90.70;;;;;;5042787;28;20021;-80
2023/07/13 10:43:11;;;;;;;7.35;2.28;;;21.60;91.10;;;;;;5027797;28;20032;-81
2023/07/13 10:45:37;;;;;;;7.53;2.35;;;21.60;91.50;;;;;;5042879;28;20061;-81
2023/07/13 10:48:05;;;;;;;7.45;2.38;;;21.60;91.60;;;;;;5022786;28;20029;-83
2023/07/13 10:50:31;;;;;;;12.82;3.45;;;21.50;91.30;;;;;;5038161;28;20021;-81
2023/07/13 10:53:18;;;;;;;11.25;3.80;;;21.30;92.30;;;;;;5023261;28;20037;-80
2023/07/13 10:56:16;;;;;;;8.90;3.33;;;21.10;93.30;;;;;;5023969;28;20030;-81
2023/07/13 10:58:43;;;;;;;8.93;3.58;;;21.20;94.00;;;;;;5040131;28;20026;-82
2023/07/13 11:01:15;;;;;;;8.30;2.95;;;21.40;94.70;;;;;;5042542;28;20022;-81
2023/07/13 11:03:44;;;;;;;7.13;2.20;;;21.60;94.50;;;;;;5043712;28;20091;-81
2023/07/13 11:06:16;;;;;;;6.20;2.35;;;21.70;93.50;;;;;;5044854;28;20141;-80
2023/07/13 11:08:48;;;;;;;5.57;1.88;;;21.90;93.20;;;;;;5043788;28;20030;-82
2023/07/13 11:11:40;;;;;;;6.18;2.50;;;22.00;93.00;;;;;;5027502;28;20485;-81
2023/07/13 11:14:31;;;;;;;6.40;2.20;;;22.10;93.20;;;;;;5041847;28;20033;-81
2023/07/13 11:16:57;;;;;;;6.30;2.20;;;22.30;93.00;;;;;;5012613;28;20029;-81
2023/07/13 11:19:22;;;;;;;8.27;2.35;;;22.30;93.20;;;;;;5026362;28;20030;-82
2023/07/13 11:22:09;;;;;;;5.75;1.67;;;22.30;92.40;;;;;;5046593;28;20009;-80
2023/07/13 11:25:01;;;;;;;5.60;1.83;;;22.20;91.70;;;;;;5031090;28;20025;-82
2023/07/13 11:27:48;;;;;;;5.03;1.07;;;22.00;91.60;;;;;;5029074;28;20026;-81
2023/07/13 11:30:29;;;;;;;3.97;1.25;;;21.90;90.10;;;;;;5046086;28;20046;-82
2023/07/13 11:33:15;;;;;;;5.40;1.30;;;21.70;90.90;;;;;;5053486;28;20037;-82
2023/07/13 11:35:59;;;;;;;3.40;1.00;;;21.60;91.20;;;;;;5054471;28;20033;-82
2023/07/13 11:38:30;;;;;;;2.85;0.88;;;21.80;91.20;;;;;;5052397;28;20027;-82
2023/07/13 11:40:58;;;;;;;4.32;1.20;;;22.10;90.30;;;;;;5029506;28;20029;-81
2023/07/13 11:43:24;;;;;;;2.15;0.70;;;22.30;87.90;;;;;;5032096;28;20440;-83
2023/07/13 11:45:51;;;;;;;4.95;1.10;;;22.50;86.40;;;;;;5031543;28;20030;-84
2023/07/13 11:48:37;;;;;;;4.40;1.00;;;22.70;85.60;;;;;;5029676;28;20109;-83
2023/07/13 11:51:05;;;;;;;3.55;1.20;;;22.80;85.20;;;;;;5046922;28;20030;-84
2023/07/13 11:53:40;;;;;;;4.13;1.27;;;22.90;85.10;;;;;;5027272;28;20052;-82
2023/07/13 11:56:06;;;;;;;4.32;1.27;;;23.00;83.90;;;;;;5027340;28;20052;-83
2023/07/13 11:58:33;;;;;;;4.97;1.25;;;23.00;83.50;;;;;;5044982;28;20029;-83
2023/07/13 12:01:04;;;;;;;4.10;1.15;;;22.80;84.40;;;;;;5046838;28;20036;-80
2023/07/13 12:03:32;;;;;;;4.22;1.30;;;22.70;86.00;;;;;;5027428;28;20030;-83
2023/07/13 12:06:01;;;;;;;4.43;1.20;;;22.60;85.70;;;;;;5011577;28;20030;-82
2023/07/13 12:08:27;;;;;;;7.00;1.90;;;22.40;86.10;;;;;;5044132;28;20025;-83
2023/07/13 12:11:14;;;;;;;5.90;1.60;;;22.30;87.30;;;;;;5044370;28;20045;-82
2023/07/13 12:13:40;;;;;;;4.40;1.73;;;22.10;87.80;;;;;;5027762;28;20140;-83
2023/07/13 12:16:25;;;;;;;6.90;1.80;;;22.00;89.00;;;;;;5045261;28;20030;-82
2023/07/13 12:18:52;;;;;;;4.68;1.92;;;22.00;89.80;;;;;;5028412;28;20040;-81
2023/07/13 12:21:21;;;;;;;6.07;1.45;;;22.20;90.20;;;;;;5045802;28;20069;-83
2023/07/13 12:23:49;;;;;;;6.82;1.65;;;22.40;90.00;;;;;;5048690;28;20013;-82
2023/07/13 12:26:17;;;;;;;5.35;1.58;;;22.60;89.30;;;;;;5035645;28;20055;-83
2023/07/13 12:28:54;;;;;;;3.60;1.02;;;22.80;90.00;;;;;;5027116;28;20030;-84
2023/07/13 12:31:23;;;;;;;6.53;1.30;;;23.00;87.80;;;;;;5026827;28;20060;-83
2023/07/13 12:33:57;;;;;;;4.70;1.20;;;23.10;87.10;;;;;;5025932;28;20421;-81
2023/07/13 12:36:23;;;;;;;5.05;1.30;;;23.20;88.00;;;;;;5024401;28;20036;-82
2023/07/13 12:38:49;;;;;;;6.28;1.50;;;23.30;87.90;;;;;;5039834;28;20033;-83
2023/07/13 12:41:15;;;;;;;6.55;1.83;;;23.30;87.10;;;;;;5004052;28;20022;-84
2023/07/13 12:43:41;;;;;;;4.43;1.40;;;23.20;86.80;;;;;;5038569;28;20441;-83
2023/07/13 12:46:23;;;;;;;5.85;1.30;;;23.10;84.60;;;;;;5022982;28;20025;-82
2023/07/13 12:48:54;;;;;;;7.43;1.75;;;22.90;84.30;;;;;;5038885;28;20346;-82
2023/07/13 12:51:24;;;;;;;5.22;1.45;;;22.70;83.80;;;;;;5021495;28;20419;-82